Time;durP1;ratioP1;P1;durP2;ratioP2;P2;SDS_P1;SDS_P2;PMS_P1;PMS_P2;Temp;Humidity;BMP_temperature;BMP_pressure;BME280_temperature;BME280_humidity;BME280_pressure;Samples;Min_cycle;Max_cycle;Signal;HPM_P1;HPM_P2
2022/11/24 00:01:25;;;;;;;0.60;0.60;;;;;;;;;;5063636;28;20021;-84
2022/11/24 00:03:59;;;;;;;1.23;0.85;;;;;;;;;;5062509;28;20502;-84
2022/11/24 00:06:25;;;;;;;4.03;1.35;;;;;;;;;;5064356;28;20488;-84
2022/11/24 00:08:51;;;;;;;1.27;0.82;;;;;;;;;;5063662;28;20036;-85
2022/11/24 00:11:19;;;;;;;0.57;0.57;;;;;;;;;;5059452;28;20116;-84
2022/11/24 00:13:46;;;;;;;1.65;0.88;;;;;;;;;;5069312;28;20039;-84
2022/11/24 00:16:17;;;;;;;0.57;0.57;;;;;;;;;;5063443;28;20369;-84
2022/11/24 00:18:44;;;;;;;0.68;0.63;;;;;;;;;;5058274;28;20024;-85
2022/11/24 00:21:10;;;;;;;1.90;1.02;;;;;;;;;;5060832;28;20028;-85
2022/11/24 00:23:36;;;;;;;1.73;0.88;;;;;;;;;;5061655;28;20527;-84
2022/11/24 00:26:03;;;;;;;1.52;0.93;;;;;;;;;;5063790;28;20182;-84
2022/11/24 00:28:28;;;;;;;0.82;0.60;;;;;;;;;;5063796;28;20029;-84
2022/11/24 00:30:54;;;;;;;6.20;1.50;;;;;;;;;;5060625;28;20024;-84
2022/11/24 00:33:19;;;;;;;2.25;0.98;;;;;;;;;;5055976;28;20532;-83
2022/11/24 00:35:44;;;;;;;1.60;0.98;;;;;;;;;;5063312;28;20029;-84
2022/11/24 00:38:10;;;;;;;1.65;1.10;;;;;;;;;;5059789;28;20044;-83
2022/11/24 00:40:35;;;;;;;1.52;0.95;;;;;;;;;;5060133;28;20510;-83
2022/11/24 00:43:01;;;;;;;2.45;0.82;;;;;;;;;;5064145;28;20043;-83
2022/11/24 00:45:26;;;;;;;1.20;1.08;;;;;;;;;;5064688;28;20056;-83
2022/11/24 00:47:51;;;;;;;3.25;1.80;;;;;;;;;;5064039;28;20040;-85
2022/11/24 00:50:17;;;;;;;1.58;1.48;;;;;;;;;;5065863;28;20515;-83
2022/11/24 00:52:43;;;;;;;1.30;0.80;;;;;;;;;;5063193;28;20025;-83
2022/11/24 00:55:08;;;;;;;5.30;1.55;;;;;;;;;;5066796;28;20033;-84
2022/11/24 00:57:34;;;;;;;3.45;1.17;;;;;;;;;;5061329;28;20098;-84
2022/11/24 00:59:59;;;;;;;2.17;1.60;;;;;;;;;;5062957;28;20052;-84
2022/11/24 01:02:25;;;;;;;2.80;1.33;;;;;;;;;;5063886;28;20472;-84
2022/11/24 01:04:50;;;;;;;1.20;0.80;;;;;;;;;;5060232;28;20029;-84
2022/11/24 01:07:16;;;;;;;4.28;2.25;;;;;;;;;;5066382;28;20021;-83
2022/11/24 01:09:44;;;;;;;6.10;1.95;;;;;;;;;;5059517;28;20028;-83
2022/11/24 01:12:10;;;;;;;5.10;2.20;;;;;;;;;;5061431;28;20472;-83
2022/11/24 01:14:35;;;;;;;3.13;1.52;;;;;;;;;;5058269;28;20024;-83
2022/11/24 01:17:00;;;;;;;0.80;0.80;;;;;;;;;;5058184;28;20029;-84
2022/11/24 01:19:26;;;;;;;1.90;0.70;;;;;;;;;;5063927;28;20052;-84
2022/11/24 01:21:52;;;;;;;1.23;0.85;;;;;;;;;;5063506;28;20025;-84
2022/11/24 01:24:17;;;;;;;1.55;0.95;;;;;;;;;;5061869;28;20108;-84
2022/11/24 01:26:42;;;;;;;2.38;1.33;;;;;;;;;;5064240;28;20336;-83
2022/11/24 01:29:09;;;;;;;4.85;1.20;;;;;;;;;;5056701;28;20839;-84
2022/11/24 01:31:35;;;;;;;0.80;0.80;;;;;;;;;;5064331;28;20037;-84
2022/11/24 01:34:01;;;;;;;2.55;0.65;;;;;;;;;;5065387;28;20485;-84
2022/11/24 01:36:27;;;;;;;2.10;1.33;;;;;;;;;;5061551;28;20028;-83
2022/11/24 01:38:52;;;;;;;2.05;1.30;;;;;;;;;;5058306;28;20060;-84
2022/11/24 01:41:24;;;;;;;0.57;0.43;;;;;;;;;;5061149;28;20055;-84
2022/11/24 01:43:51;;;;;;;0.32;0.32;;;;;;;;;;5063857;28;20066;-84
2022/11/24 01:46:28;;;;;;;0.30;0.30;;;;;;;;;;5065217;28;20369;-86
2022/11/24 01:49:12;;;;;;;0.75;0.75;;;;;;;;;;5061830;28;20028;-84
2022/11/24 01:51:44;;;;;;;0.93;0.75;;;;;;;;;;5060566;28;20036;-84
2022/11/24 01:54:18;;;;;;;0.40;0.40;;;;;;;;;;5064084;28;20037;-84
2022/11/24 01:56:47;;;;;;;0.40;0.40;;;;;;;;;;5063487;28;20031;-85
2022/11/24 01:59:16;;;;;;;0.65;0.65;;;;;;;;;;5059847;28;20126;-83
2022/11/24 02:01:41;;;;;;;0.70;0.52;;;;;;;;;;5056869;28;20047;-84
2022/11/24 02:04:11;;;;;;;0.57;0.57;;;;;;;;;;5064035;28;20033;-83
2022/11/24 02:06:40;;;;;;;1.02;0.93;;;;;;;;;;5057844;28;20055;-83
2022/11/24 02:09:15;;;;;;;0.45;0.45;;;;;;;;;;5060472;28;20036;-83
2022/11/24 02:11:43;;;;;;;2.25;1.25;;;;;;;;;;5062372;28;20039;-83
2022/11/24 02:14:12;;;;;;;2.15;1.10;;;;;;;;;;5061000;28;20070;-83
2022/11/24 02:16:39;;;;;;;0.98;0.85;;;;;;;;;;5061901;28;20032;-83
2022/11/24 02:19:13;;;;;;;0.40;0.40;;;;;;;;;;5059625;28;20037;-84
2022/11/24 02:21:38;;;;;;;0.40;0.40;;;;;;;;;;5060134;28;20035;-84
2022/11/24 02:24:31;;;;;;;0.50;0.50;;;;;;;;;;5060725;28;20028;-83
2022/11/24 02:26:57;;;;;;;0.88;0.63;;;;;;;;;;5060571;28;20031;-84
2022/11/24 02:29:23;;;;;;;0.68;0.68;;;;;;;;;;5065800;28;20020;-84
2022/11/24 02:31:55;;;;;;;0.47;0.47;;;;;;;;;;5064633;28;20030;-84
2022/11/24 02:34:20;;;;;;;4.05;1.38;;;;;;;;;;5063430;28;20024;-85
2022/11/24 02:36:45;;;;;;;0.43;0.43;;;;;;;;;;5059706;28;20077;-86
2022/11/24 02:39:12;;;;;;;3.22;0.80;;;;;;;;;;5057074;28;20499;-85
2022/11/24 02:41:42;;;;;;;0.80;0.80;;;;;;;;;;5057386;28;20044;-84
2022/11/24 02:44:08;;;;;;;0.88;0.52;;;;;;;;;;5064894;28;20029;-85
2022/11/24 02:46:33;;;;;;;1.80;0.90;;;;;;;;;;5056765;28;20022;-85
2022/11/24 02:48:58;;;;;;;1.25;0.93;;;;;;;;;;5063026;28;20049;-84
2022/11/24 02:51:33;;;;;;;2.22;0.77;;;;;;;;;;5067499;28;20070;-84
2022/11/24 02:53:59;;;;;;;0.30;0.30;;;;;;;;;;5064940;28;20040;-86
2022/11/24 02:56:25;;;;;;;0.40;0.40;;;;;;;;;;5059865;28;20028;-83
2022/11/24 02:58:51;;;;;;;0.50;0.40;;;;;;;;;;5058773;28;20029;-83
2022/11/24 03:01:16;;;;;;;0.93;0.70;;;;;;;;;;5061235;28;20028;-83
2022/11/24 03:03:42;;;;;;;1.30;0.57;;;;;;;;;;5060786;28;20059;-83
2022/11/24 03:06:07;;;;;;;0.80;0.80;;;;;;;;;;5059270;28;20051;-84
2022/11/24 03:08:34;;;;;;;2.22;0.70;;;;;;;;;;5059274;28;20029;-84
2022/11/24 03:11:01;;;;;;;3.05;1.02;;;;;;;;;;5056043;28;20025;-85
2022/11/24 03:13:26;;;;;;;0.95;0.65;;;;;;;;;;5060280;28;20035;-83
2022/11/24 03:15:51;;;;;;;1.48;0.77;;;;;;;;;;5070018;28;20029;-84
2022/11/24 03:18:17;;;;;;;0.77;0.50;;;;;;;;;;5066108;28;20053;-83
2022/11/24 03:20:43;;;;;;;0.98;0.55;;;;;;;;;;5058058;28;20060;-84
2022/11/24 03:23:08;;;;;;;0.73;0.63;;;;;;;;;;5060879;28;20032;-84
2022/11/24 03:25:33;;;;;;;0.35;0.35;;;;;;;;;;5066165;28;20056;-84
2022/11/24 03:27:59;;;;;;;0.98;0.85;;;;;;;;;;5065788;28;20021;-84
2022/11/24 03:30:25;;;;;;;0.75;0.70;;;;;;;;;;5069356;28;20060;-83
2022/11/24 03:32:55;;;;;;;7.63;1.25;;;;;;;;;;5065426;28;20064;-83
2022/11/24 03:35:20;;;;;;;;;;;;;;;;;;5060845;28;20052;-82
2022/11/24 03:37:46;;;;;;;1.10;0.85;;;;;;;;;;5062864;28;20376;-82
2022/11/24 03:40:11;;;;;;;1.60;1.13;;;;;;;;;;5061106;28;20079;-83
2022/11/24 03:42:37;;;;;;;2.33;1.25;;;;;;;;;;5071528;28;20021;-83
2022/11/24 03:45:02;;;;;;;2.15;1.23;;;;;;;;;;5063661;28;20035;-82
2022/11/24 03:47:28;;;;;;;1.20;0.75;;;;;;;;;;5069681;28;20185;-82
2022/11/24 03:49:53;;;;;;;1.45;1.13;;;;;;;;;;5066986;28;20035;-83
2022/11/24 03:52:19;;;;;;;3.90;1.35;;;;;;;;;;5065985;28;20107;-84
2022/11/24 03:54:46;;;;;;;0.73;0.30;;;;;;;;;;5067362;28;20025;-83
2022/11/24 03:57:12;;;;;;;1.33;0.90;;;;;;;;;;5069775;28;20035;-84
2022/11/24 03:59:38;;;;;;;3.28;1.80;;;;;;;;;;5061857;28;20032;-84
2022/11/24 04:02:03;;;;;;;1.23;0.90;;;;;;;;;;5063017;28;20025;-83
2022/11/24 04:04:28;;;;;;;1.48;0.88;;;;;;;;;;5058310;28;20384;-83
2022/11/24 04:06:54;;;;;;;0.85;0.85;;;;;;;;;;5058546;28;20032;-84
2022/11/24 04:09:19;;;;;;;0.50;0.50;;;;;;;;;;5062839;28;20040;-84
2022/11/24 04:14:29;;;;;;;0.50;0.45;;;;;;;;;;5063470;28;20530;-85
2022/11/24 04:16:54;;;;;;;1.33;0.95;;;;;;;;;;5061337;28;20033;-85
2022/11/24 04:19:19;;;;;;;0.80;0.80;;;;;;;;;;5066618;28;20029;-86
2022/11/24 04:21:45;;;;;;;2.20;1.15;;;;;;;;;;5060364;28;20074;-84
2022/11/24 04:24:10;;;;;;;3.47;1.13;;;;;;;;;;5068403;28;20025;-84
2022/11/24 04:26:36;;;;;;;6.72;1.50;;;;;;;;;;5060845;28;20041;-85
2022/11/24 04:29:01;;;;;;;6.32;1.33;;;;;;;;;;5054772;28;20036;-85
2022/11/24 04:31:27;;;;;;;1.15;1.05;;;;;;;;;;5064802;28;20029;-84
2022/11/24 04:33:52;;;;;;;2.08;1.52;;;;;;;;;;5061774;28;20343;-85
2022/11/24 04:36:17;;;;;;;5.28;2.60;;;;;;;;;;5059751;28;20025;-87
2022/11/24 04:38:43;;;;;;;5.10;3.05;;;;;;;;;;5061976;28;20028;-85
2022/11/24 04:41:08;;;;;;;4.78;2.30;;;;;;;;;;5059738;28;20049;-84
2022/11/24 04:43:34;;;;;;;5.68;3.22;;;;;;;;;;5067360;28;20038;-84
2022/11/24 04:46:00;;;;;;;6.78;3.88;;;;;;;;;;5059090;28;20057;-85
2022/11/24 04:48:26;;;;;;;7.88;3.55;;;;;;;;;;5061700;28;20031;-86
2022/11/24 04:50:51;;;;;;;7.10;2.63;;;;;;;;;;5062762;28;20484;-85
2022/11/24 04:53:17;;;;;;;2.17;1.83;;;;;;;;;;5063083;28;20033;-85
2022/11/24 04:55:42;;;;;;;1.75;1.20;;;;;;;;;;5062217;28;20024;-85
2022/11/24 04:58:09;;;;;;;1.63;1.52;;;;;;;;;;5061144;28;20058;-84
2022/11/24 05:00:35;;;;;;;3.03;1.67;;;;;;;;;;5061530;28;20025;-84
2022/11/24 05:03:00;;;;;;;4.78;1.92;;;;;;;;;;5063267;28;20025;-84
2022/11/24 05:05:26;;;;;;;4.90;1.95;;;;;;;;;;5064669;28;20591;-84
2022/11/24 05:07:51;;;;;;;3.67;2.03;;;;;;;;;;5058798;28;20040;-84
2022/11/24 05:10:35;;;;;;;19.73;6.68;;;;;;;;;;5056998;28;20039;-83
2022/11/24 05:13:10;;;;;;;2.78;2.22;;;;;;;;;;5063140;28;20480;-85
2022/11/24 05:15:37;;;;;;;1.95;1.23;;;;;;;;;;5054618;28;20033;-85
2022/11/24 05:18:04;;;;;;;5.05;2.40;;;;;;;;;;5060330;28;20071;-84
2022/11/24 05:20:37;;;;;;;9.07;2.67;;;;;;;;;;5054976;28;20021;-85
2022/11/24 05:23:07;;;;;;;1.30;0.93;;;;;;;;;;5059228;28;20024;-86
2022/11/24 05:25:33;;;;;;;2.15;1.08;;;;;;;;;;5060296;28;20065;-85
2022/11/24 05:28:04;;;;;;;1.27;1.10;;;;;;;;;;5059853;28;20047;-86
2022/11/24 05:30:31;;;;;;;1.60;1.00;;;;;;;;;;5059514;28;20029;-86
2022/11/24 05:32:57;;;;;;;0.90;0.82;;;;;;;;;;5060634;28;20107;-86
2022/11/24 05:35:23;;;;;;;0.80;0.70;;;;;;;;;;5064188;28;20036;-84
2022/11/24 05:37:48;;;;;;;2.22;1.13;;;;;;;;;;5055645;28;20047;-86
2022/11/24 05:40:14;;;;;;;1.73;1.30;;;;;;;;;;5053324;28;20427;-84
2022/11/24 05:42:39;;;;;;;4.25;1.40;;;;;;;;;;5055964;28;20052;-84
2022/11/24 05:45:08;;;;;;;1.67;0.75;;;;;;;;;;5065830;28;20024;-88
2022/11/24 05:47:33;;;;;;;0.77;0.60;;;;;;;;;;5055356;28;20045;-88
2022/11/24 05:49:59;;;;;;;1.40;1.13;;;;;;;;;;5063763;28;20063;-88
2022/11/24 05:52:24;;;;;;;2.35;1.15;;;;;;;;;;5050810;28;20028;-87
2022/11/24 05:54:50;;;;;;;1.70;1.20;;;;;;;;;;5062550;28;20029;-87
2022/11/24 05:57:16;;;;;;;1.00;0.88;;;;;;;;;;5063097;28;20028;-84
2022/11/24 05:59:41;;;;;;;3.05;1.08;;;;;;;;;;5056174;28;20484;-84
2022/11/24 06:02:08;;;;;;;0.60;0.60;;;;;;;;;;5064164;28;20024;-86
2022/11/24 06:04:34;;;;;;;0.80;0.70;;;;;;;;;;5055622;28;20025;-85
2022/11/24 06:07:00;;;;;;;1.10;0.93;;;;;;;;;;5056778;28;20114;-86
2022/11/24 06:09:25;;;;;;;0.95;0.82;;;;;;;;;;5061074;28;20122;-83
2022/11/24 06:11:51;;;;;;;1.08;0.82;;;;;;;;;;5055240;28;20028;-83
2022/11/24 06:14:16;;;;;;;0.60;0.60;;;;;;;;;;5053752;28;20025;-86
2022/11/24 06:16:42;;;;;;;1.65;1.08;;;;;;;;;;5061903;28;20025;-89
2022/11/24 06:19:09;;;;;;;1.45;1.15;;;;;;;;;;5060371;28;20040;-86
2022/11/24 06:21:35;;;;;;;1.13;0.80;;;;;;;;;;5060898;28;20040;-83
2022/11/24 06:24:01;;;;;;;0.77;0.75;;;;;;;;;;5050406;28;20063;-85
2022/11/24 06:26:27;;;;;;;0.75;0.60;;;;;;;;;;5063839;28;20039;-84
2022/11/24 06:28:52;;;;;;;0.73;0.60;;;;;;;;;;5058552;28;20059;-86
2022/11/24 06:31:18;;;;;;;0.57;0.57;;;;;;;;;;5055279;28;20104;-85
2022/11/24 06:33:43;;;;;;;1.70;0.93;;;;;;;;;;5062180;28;20029;-83
2022/11/24 06:36:12;;;;;;;0.73;0.73;;;;;;;;;;5056201;28;20021;-83
2022/11/24 06:38:37;;;;;;;0.95;0.65;;;;;;;;;;5050754;28;20079;-85
2022/11/24 06:41:05;;;;;;;1.80;1.05;;;;;;;;;;5055418;28;20068;-85
2022/11/24 06:43:32;;;;;;;1.15;1.00;;;;;;;;;;5056172;28;20492;-82
2022/11/24 06:45:59;;;;;;;0.63;0.63;;;;;;;;;;5061275;28;20051;-83
2022/11/24 06:48:25;;;;;;;1.08;0.98;;;;;;;;;;5057149;28;20029;-84
2022/11/24 06:50:52;;;;;;;2.67;1.75;;;;;;;;;;5059485;28;20035;-84
2022/11/24 06:53:17;;;;;;;10.43;1.58;;;;;;;;;;5061819;28;20020;-85
2022/11/24 06:55:44;;;;;;;2.35;1.80;;;;;;;;;;5064972;28;20492;-85
2022/11/24 06:58:10;;;;;;;7.00;3.53;;;;;;;;;;5060946;28;20037;-82
2022/11/24 07:00:36;;;;;;;6.05;3.75;;;;;;;;;;5059206;28;20151;-87
2022/11/24 07:03:02;;;;;;;7.00;2.85;;;;;;;;;;5060572;28;20020;-84
2022/11/24 07:05:27;;;;;;;15.82;6.80;;;;;;;;;;5057819;28;20036;-84
2022/11/24 07:07:52;;;;;;;5.50;2.15;;;;;;;;;;5054698;28;20035;-83
2022/11/24 07:10:18;;;;;;;3.75;2.70;;;;;;;;;;5061150;28;20029;-84
2022/11/24 07:12:43;;;;;;;6.57;3.00;;;;;;;;;;5061620;28;20492;-84
2022/11/24 07:15:09;;;;;;;3.10;1.98;;;;;;;;;;5056562;28;20028;-84
2022/11/24 07:17:39;;;;;;;3.45;2.65;;;;;;;;;;5053882;28;20029;-83
2022/11/24 07:20:06;;;;;;;9.07;3.78;;;;;;;;;;5053875;28;20025;-85
2022/11/24 07:22:32;;;;;;;6.00;3.63;;;;;;;;;;5057725;28;20032;-88
2022/11/24 07:24:57;;;;;;;3.72;3.08;;;;;;;;;;5060017;28;20163;-85
2022/11/24 07:27:23;;;;;;;4.80;3.72;;;;;;;;;;5058624;28;20023;-85
2022/11/24 07:29:48;;;;;;;5.07;3.47;;;;;;;;;;5061265;28;20115;-85
2022/11/24 07:32:14;;;;;;;5.75;4.35;;;;;;;;;;5059907;28;20499;-86
2022/11/24 07:34:39;;;;;;;8.70;5.38;;;;;;;;;;5059487;28;20107;-85
2022/11/24 07:37:05;;;;;;;7.70;4.80;;;;;;;;;;5056292;28;20025;-84
2022/11/24 07:39:30;;;;;;;15.20;3.90;;;;;;;;;;5060145;28;20029;-86
2022/11/24 07:56:35;;;;;;;;;;;;;;;;;;;;;
2022/11/24 07:59:38;;;;;;;3.55;2.58;;;;;;;;;;4872973;29;20054;-89
2022/11/24 08:08:59;;;;;;;;;;;;;;;;;;;;;
2022/11/24 08:15:06;;;;;;;3.78;2.65;;;;;;;;;;4986956;28;20037;-87
2022/11/24 08:17:37;;;;;;;4.28;2.97;;;;;;;;;;5011752;28;20029;-83
2022/11/24 08:24:30;;;;;;;3.40;3.10;;;;;;;;;;4931568;29;20107;-85
2022/11/24 08:30:28;;;;;;;6.90;3.95;;;;;;;;;;4859342;29;20056;-86
2022/11/24 08:33:28;;;;;;;5.55;3.47;;;;;;;;;;4879954;29;20049;-83
2022/11/24 08:35:54;;;;;;;3.22;2.88;;;;;;;;;;4933527;29;20485;-82
2022/11/24 08:38:35;;;;;;;3.55;2.85;;;;;;;;;;4960221;28;20046;-84
2022/11/24 08:41:48;;;;;;;6.53;3.08;;;;;;;;;;4998683;28;20156;-84
2022/11/24 08:45:05;;;;;;;5.88;2.67;;;;;;;;;;4977036;28;20045;-85
2022/11/24 08:48:21;;;;;;;5.65;3.42;;;;;;;;;;4977460;28;20125;-85
2022/11/24 08:54:45;;;;;;;3.70;3.28;;;;;;;;;;4950807;29;20035;-83
2022/11/24 08:57:40;;;;;;;2.40;1.85;;;;;;;;;;4946185;28;20041;-88
2022/11/24 09:00:06;;;;;;;4.10;2.13;;;;;;;;;;5042358;28;20036;-83
2022/11/24 09:03:22;;;;;;;3.33;2.42;;;;;;;;;;5056437;28;20025;-85
2022/11/24 09:06:26;;;;;;;2.05;1.35;;;;;;;;;;5025797;28;20056;-88
2022/11/24 09:13:00;;;;;;;4.70;2.05;;;;;;;;;;5012107;28;20034;-85
2022/11/24 09:16:36;;;;;;;1.35;1.25;;;;;;;;;;5034973;28;20141;-86
2022/11/24 09:29:33;;;;;;;1.08;0.80;;;;;;;;;;4992888;28;20042;-86
2022/11/24 09:46:53;;;;;;;1.05;0.60;;;;;;;;;;4847748;29;20110;-84
2022/11/24 09:49:32;;;;;;;4.38;0.85;;;;;;;;;;4889397;28;20133;-85
2022/11/24 09:52:02;;;;;;;0.40;0.40;;;;;;;;;;4967525;28;20042;-86
2022/11/24 09:54:28;;;;;;;0.22;0.22;;;;;;;;;;4982758;28;20040;-85
2022/11/24 09:56:58;;;;;;;0.70;0.50;;;;;;;;;;5050009;28;20049;-84
2022/11/24 09:59:25;;;;;;;;;;;;;;;;;;5060126;28;20099;-85
2022/11/24 10:01:51;;;;;;;2.15;1.25;;;;;;;;;;5044741;28;19912;-86
2022/11/24 10:04:21;;;;;;;2.42;1.60;;;;;;;;;;5055360;28;20028;-84
2022/11/24 10:06:49;;;;;;;1.90;1.15;;;;;;;;;;5054699;28;20025;-82
2022/11/24 10:09:27;;;;;;;1.40;1.30;;;;;;;;;;5059288;28;20017;-86
2022/11/24 10:11:56;;;;;;;0.60;0.60;;;;;;;;;;5058828;28;20086;-84
2022/11/24 10:14:33;;;;;;;0.63;0.63;;;;;;;;;;5061356;28;20138;-86
2022/11/24 10:17:12;;;;;;;1.95;0.73;;;;;;;;;;5054574;28;20086;-88
2022/11/24 10:20:02;;;;;;;0.93;0.93;;;;;;;;;;5061349;28;20476;-85
2022/11/24 10:22:36;;;;;;;1.58;1.25;;;;;;;;;;5065453;28;20038;-86
2022/11/24 10:25:22;;;;;;;2.08;1.20;;;;;;;;;;5056177;28;20055;-85
2022/11/24 10:27:58;;;;;;;1.30;1.15;;;;;;;;;;5048806;28;20045;-86
2022/11/24 10:30:24;;;;;;;0.68;0.68;;;;;;;;;;5053831;28;20024;-83
2022/11/24 10:33:02;;;;;;;1.35;1.00;;;;;;;;;;5056367;28;20033;-84
2022/11/24 10:35:37;;;;;;;2.38;1.13;;;;;;;;;;5063539;28;20016;-85
2022/11/24 10:38:20;;;;;;;3.85;1.85;;;;;;;;;;5057457;28;20120;-85
2022/11/24 10:41:18;;;;;;;1.85;1.48;;;;;;;;;;5050656;28;20053;-84
2022/11/24 10:43:44;;;;;;;2.00;1.50;;;;;;;;;;5044019;28;20413;-85
2022/11/24 10:46:23;;;;;;;1.20;1.10;;;;;;;;;;5063740;28;20032;-85
2022/11/24 10:48:55;;;;;;;1.33;0.90;;;;;;;;;;5055367;28;20033;-85
2022/11/24 10:51:30;;;;;;;1.85;1.30;;;;;;;;;;5046858;28;20101;-86
2022/11/24 10:54:11;;;;;;;1.83;1.38;;;;;;;;;;5060717;28;20041;-90
2022/11/24 10:56:41;;;;;;;1.67;1.08;;;;;;;;;;5055620;28;20469;-87
2022/11/24 10:59:25;;;;;;;;;;;;;;;;;;5065670;28;20025;-85
2022/11/24 11:01:51;;;;;;;0.70;0.70;;;;;;;;;;5059301;28;19916;-83
2022/11/24 11:04:30;;;;;;;3.05;1.63;;;;;;;;;;5058397;28;20040;-84
2022/11/24 11:07:15;;;;;;;1.17;1.08;;;;;;;;;;5056174;28;20100;-88
2022/11/24 11:09:40;;;;;;;1.27;1.10;;;;;;;;;;5054511;28;20356;-83
2022/11/24 11:12:16;;;;;;;1.65;1.05;;;;;;;;;;5052166;28;20036;-85
2022/11/24 11:14:42;;;;;;;0.60;0.60;;;;;;;;;;5055810;28;20031;-86
2022/11/24 11:17:34;;;;;;;1.55;1.27;;;;;;;;;;5051711;28;20033;-83
2022/11/24 11:20:16;;;;;;;1.40;1.15;;;;;;;;;;5060083;28;20029;-85
2022/11/24 11:22:44;;;;;;;2.85;1.30;;;;;;;;;;5063030;28;20073;-84
2022/11/24 11:25:10;;;;;;;3.88;2.15;;;;;;;;;;5049095;28;20159;-80
2022/11/24 11:27:37;;;;;;;1.42;1.15;;;;;;;;;;5058858;28;20024;-83
2022/11/24 11:30:26;;;;;;;4.75;1.63;;;;;;;;;;5053350;28;20072;-84
2022/11/24 11:32:59;;;;;;;;;;;;;;;;;;5054474;28;20489;-85
2022/11/24 11:35:27;;;;;;;1.90;1.17;;;;;;;;;;5057661;28;20004;-84
2022/11/24 11:38:00;;;;;;;1.83;1.60;;;;;;;;;;5062633;28;20529;-85
2022/11/24 11:40:28;;;;;;;1.85;1.25;;;;;;;;;;5059455;28;20031;-83
2022/11/24 11:43:34;;;;;;;3.20;1.95;;;;;;;;;;5057114;28;20032;-82
2022/11/24 11:46:17;;;;;;;3.30;1.70;;;;;;;;;;5037657;28;20043;-85
2022/11/24 11:48:45;;;;;;;1.58;1.27;;;;;;;;;;5065834;28;20032;-84
2022/11/24 11:51:45;;;;;;;2.42;1.63;;;;;;;;;;5064454;28;20024;-84
2022/11/24 11:54:25;;;;;;;2.08;1.38;;;;;;;;;;5058379;28;20108;-83
2022/11/24 11:57:26;;;;;;;2.72;1.52;;;;;;;;;;5057313;28;20067;-87
2022/11/24 12:00:03;;;;;;;1.42;1.30;;;;;;;;;;5060950;28;20029;-84
2022/11/24 12:02:48;;;;;;;3.17;2.35;;;;;;;;;;5056570;28;20074;-86
2022/11/24 12:05:20;;;;;;;1.90;1.70;;;;;;;;;;5060598;28;20104;-85
2022/11/24 12:08:19;;;;;;;3.08;1.65;;;;;;;;;;5061392;28;20115;-84
2022/11/24 12:10:51;;;;;;;2.22;1.13;;;;;;;;;;5055330;28;20024;-84
2022/11/24 12:13:33;;;;;;;4.05;2.63;;;;;;;;;;5064498;28;20020;-82
2022/11/24 12:16:29;;;;;;;3.92;2.63;;;;;;;;;;5063113;28;20078;-85
2022/11/24 12:18:58;;;;;;;4.45;2.70;;;;;;;;;;5055821;28;20044;-87
2022/11/24 12:21:35;;;;;;;2.78;1.65;;;;;;;;;;5061805;28;20048;-84
2022/11/24 12:24:09;;;;;;;1.80;0.85;;;;;;;;;;5058084;28;20025;-83
2022/11/24 12:26:56;;;;;;;2.35;1.65;;;;;;;;;;5063994;28;20028;-84
2022/11/24 12:29:56;;;;;;;1.60;1.48;;;;;;;;;;5066419;28;20036;-83
2022/11/24 12:32:24;;;;;;;2.08;1.85;;;;;;;;;;5055928;28;20036;-85
2022/11/24 12:35:04;;;;;;;1.33;1.23;;;;;;;;;;5058115;28;20024;-83
2022/11/24 12:38:02;;;;;;;2.55;1.08;;;;;;;;;;5062994;28;20032;-83
2022/11/24 12:40:49;;;;;;;1.40;1.30;;;;;;;;;;5043559;28;20552;-85
2022/11/24 12:43:37;;;;;;;1.08;0.98;;;;;;;;;;5053534;28;20025;-86
2022/11/24 12:46:14;;;;;;;1.00;0.90;;;;;;;;;;5062396;28;20106;-85
2022/11/24 12:48:56;;;;;;;1.00;1.00;;;;;;;;;;5061227;28;20384;-83
2022/11/24 12:51:34;;;;;;;1.17;0.95;;;;;;;;;;5059093;28;20037;-83
2022/11/24 12:54:03;;;;;;;2.55;1.67;;;;;;;;;;5064144;28;20151;-84
2022/11/24 12:56:41;;;;;;;1.15;1.05;;;;;;;;;;5064583;28;20031;-85
2022/11/24 12:59:36;;;;;;;3.67;1.73;;;;;;;;;;5061194;28;20035;-85
2022/11/24 13:02:24;;;;;;;2.10;1.33;;;;;;;;;;5054164;28;20056;-85
2022/11/24 13:05:16;;;;;;;1.02;0.90;;;;;;;;;;5039815;28;20127;-83
2022/11/24 13:08:02;;;;;;;1.95;1.77;;;;;;;;;;5056357;28;20032;-83
2022/11/24 13:10:37;;;;;;;0.85;0.70;;;;;;;;;;5056093;28;20099;-83
2022/11/24 13:13:30;;;;;;;1.65;1.13;;;;;;;;;;5054749;28;20040;-84
2022/11/24 13:16:27;;;;;;;1.20;1.05;;;;;;;;;;5014882;28;20045;-84
2022/11/24 13:19:01;;;;;;;2.00;1.27;;;;;;;;;;4958441;28;20169;-85
2022/11/24 13:21:30;;;;;;;2.20;1.40;;;;;;;;;;5003575;28;20033;-83
2022/11/24 13:24:29;;;;;;;2.03;1.83;;;;;;;;;;5015752;28;20041;-83
2022/11/24 13:30:01;;;;;;;3.17;1.77;;;;;;;;;;5004405;28;20044;-84
2022/11/24 13:33:17;;;;;;;1.50;1.40;;;;;;;;;;5020841;28;20449;-84
2022/11/24 13:36:06;;;;;;;2.17;1.17;;;;;;;;;;5006572;28;20436;-85
2022/11/24 13:38:44;;;;;;;0.68;0.60;;;;;;;;;;5003229;28;20525;-83
2022/11/24 13:41:30;;;;;;;0.98;0.98;;;;;;;;;;5017248;28;20049;-85
2022/11/24 13:44:14;;;;;;;0.88;0.80;;;;;;;;;;5018588;28;20040;-84
2022/11/24 13:47:01;;;;;;;2.55;2.10;;;;;;;;;;5025831;28;20043;-82
2022/11/24 13:49:41;;;;;;;1.58;1.42;;;;;;;;;;5083144;28;20051;-87
2022/11/24 13:52:34;;;;;;;2.08;1.67;;;;;;;;;;5057825;28;20376;-84
2022/11/24 13:55:26;;;;;;;2.63;1.80;;;;;;;;;;5067263;28;20025;-85
2022/11/24 13:58:13;;;;;;;;;;;;;;;;;;;;;
2022/11/24 14:01:11;;;;;;;2.30;1.48;;;;;;;;;;5059670;28;20039;-85
2022/11/24 14:04:11;;;;;;;0.95;0.88;;;;;;;;;;5064237;28;20032;-87
2022/11/24 14:06:39;;;;;;;0.82;0.60;;;;;;;;;;5056031;28;20041;-85
2022/11/24 14:09:24;;;;;;;0.73;0.70;;;;;;;;;;5062245;28;20024;-89
2022/11/24 14:11:56;;;;;;;1.40;1.10;;;;;;;;;;5054092;28;20049;-84
2022/11/24 14:14:22;;;;;;;0.70;0.70;;;;;;;;;;5057600;28;20024;-85
2022/11/24 14:16:48;;;;;;;0.90;0.70;;;;;;;;;;5063353;28;20028;-84
2022/11/24 14:19:17;;;;;;;2.05;1.25;;;;;;;;;;5059404;28;20493;-83
2022/11/24 14:21:43;;;;;;;1.07;0.73;;;;;;;;;;5068149;28;20036;-86
2022/11/24 14:24:14;;;;;;;1.58;1.08;;;;;;;;;;5060158;28;20029;-86
2022/11/24 14:26:40;;;;;;;1.08;0.80;;;;;;;;;;5059571;28;20031;-85
2022/11/24 14:29:21;;;;;;;0.57;0.47;;;;;;;;;;5063570;28;20032;-86
2022/11/24 14:32:02;;;;;;;0.85;0.70;;;;;;;;;;5056108;28;20492;-86
2022/11/24 14:34:37;;;;;;;0.52;0.52;;;;;;;;;;5059618;28;20024;-84
2022/11/24 14:37:02;;;;;;;0.88;0.88;;;;;;;;;;5061848;28;20487;-83
2022/11/24 14:39:29;;;;;;;1.65;1.08;;;;;;;;;;5062669;28;20024;-85
2022/11/24 14:42:17;;;;;;;0.70;0.65;;;;;;;;;;5059466;28;20496;-85
2022/11/24 14:44:51;;;;;;;0.68;0.65;;;;;;;;;;5055222;28;20025;-82
2022/11/24 14:47:35;;;;;;;0.50;0.50;;;;;;;;;;5064433;28;20025;-86
2022/11/24 14:50:17;;;;;;;1.25;1.15;;;;;;;;;;5051933;28;20043;-84
2022/11/24 14:52:44;;;;;;;1.15;1.00;;;;;;;;;;5049085;28;20484;-84
2022/11/24 14:55:23;;;;;;;0.65;0.63;;;;;;;;;;5058062;28;20028;-85
2022/11/24 14:57:49;;;;;;;1.38;1.05;;;;;;;;;;5056833;28;20032;-84
2022/11/24 15:00:14;;;;;;;0.73;0.60;;;;;;;;;;5059730;28;20386;-84
2022/11/24 15:02:48;;;;;;;0.98;0.63;;;;;;;;;;5058075;28;20029;-86
2022/11/24 15:05:15;;;;;;;0.75;0.73;;;;;;;;;;5058929;28;20086;-84
2022/11/24 15:07:43;;;;;;;0.55;0.55;;;;;;;;;;5058248;28;20028;-84
2022/11/24 15:10:33;;;;;;;1.52;1.00;;;;;;;;;;5060044;28;20039;-84
2022/11/24 15:13:01;;;;;;;2.22;1.35;;;;;;;;;;5060592;28;20029;-82
2022/11/24 15:15:32;;;;;;;4.75;2.40;;;;;;;;;;5055576;28;20394;-84
2022/11/24 15:17:59;;;;;;;2.15;1.58;;;;;;;;;;5062238;28;20468;-84
2022/11/24 15:20:28;;;;;;;2.80;1.52;;;;;;;;;;5059586;28;20033;-84
2022/11/24 15:23:12;;;;;;;2.80;1.27;;;;;;;;;;5061006;28;20031;-83
2022/11/24 15:25:38;;;;;;;1.70;1.33;;;;;;;;;;5058455;28;20025;-85
2022/11/24 15:28:10;;;;;;;3.13;1.42;;;;;;;;;;5057058;28;20032;-84
2022/11/24 15:30:36;;;;;;;1.08;0.68;;;;;;;;;;5049561;28;20035;-84
2022/11/24 15:33:02;;;;;;;2.15;0.82;;;;;;;;;;5056144;28;20379;-84
2022/11/24 15:35:31;;;;;;;1.10;1.00;;;;;;;;;;5056013;28;20037;-83
2022/11/24 15:37:57;;;;;;;0.68;0.68;;;;;;;;;;5059132;28;20032;-84
2022/11/24 15:40:22;;;;;;;1.40;1.30;;;;;;;;;;5060158;28;20463;-82
2022/11/24 15:42:53;;;;;;;2.22;1.65;;;;;;;;;;5059531;28;20032;-83
2022/11/24 15:45:20;;;;;;;3.85;1.17;;;;;;;;;;5057260;28;20849;-84
2022/11/24 15:47:46;;;;;;;1.48;1.23;;;;;;;;;;5063825;28;20025;-84
2022/11/24 15:50:12;;;;;;;3.40;1.73;;;;;;;;;;5065020;28;20031;-83
2022/11/24 15:52:38;;;;;;;1.92;1.38;;;;;;;;;;5059893;28;20021;-84
2022/11/24 15:55:04;;;;;;;1.00;0.82;;;;;;;;;;5064691;28;20032;-84
2022/11/24 15:57:32;;;;;;;1.67;1.15;;;;;;;;;;5062796;28;20028;-82
2022/11/24 15:59:58;;;;;;;2.40;1.60;;;;;;;;;;5060283;28;20393;-86
2022/11/24 16:02:24;;;;;;;2.20;1.85;;;;;;;;;;5064139;28;20025;-81
2022/11/24 16:04:50;;;;;;;1.50;1.17;;;;;;;;;;5058658;28;20116;-83
2022/11/24 16:07:15;;;;;;;0.45;0.45;;;;;;;;;;5064301;28;20031;-84
2022/11/24 16:09:41;;;;;;;1.08;1.02;;;;;;;;;;5064024;28;20025;-83
2022/11/24 16:12:09;;;;;;;1.15;0.98;;;;;;;;;;5058903;28;20020;-84
2022/11/24 16:14:35;;;;;;;1.33;0.77;;;;;;;;;;5064608;28;20076;-83
2022/11/24 16:17:01;;;;;;;2.53;1.52;;;;;;;;;;5061554;28;20088;-84
2022/11/24 16:19:27;;;;;;;1.73;1.48;;;;;;;;;;5061913;28;20025;-83
2022/11/24 16:21:52;;;;;;;1.40;1.10;;;;;;;;;;5063752;28;20301;-86
2022/11/24 16:24:18;;;;;;;0.77;0.77;;;;;;;;;;5063908;28;20464;-86
2022/11/24 16:26:43;;;;;;;2.83;1.85;;;;;;;;;;5061953;28;20024;-85
2022/11/24 16:29:09;;;;;;;1.55;1.20;;;;;;;;;;5056295;28;20079;-83